sensor_id;sensor_type;location;lat;lon;timestamp;temperature;humidity
17039;DHT22;8636;55.750;13.202;2023-12-07T00:02:23;0.70;99.90
17039;DHT22;8636;55.750;13.202;2023-12-07T00:04:53;0.70;99.90
17039;DHT22;8636;55.750;13.202;2023-12-07T00:07:27;0.70;99.90
17039;DHT22;8636;55.750;13.202;2023-12-07T00:10:02;0.70;99.90
17039;DHT22;8636;55.750;13.202;2023-12-07T00:12:36;0.70;99.90
17039;DHT22;8636;55.750;13.202;2023-12-07T00:15:06;0.70;99.90
17039;DHT22;8636;55.750;13.202;2023-12-07T00:17:40;0.70;99.90
17039;DHT22;8636;55.750;13.202;2023-12-07T00:20:10;0.70;99.90
17039;DHT22;8636;55.750;13.202;2023-12-07T00:22:45;0.70;99.90
17039;DHT22;8636;55.750;13.202;2023-12-07T00:25:13;0.70;99.90
17039;DHT22;8636;55.750;13.202;2023-12-07T00:27:48;0.70;99.90
17039;DHT22;8636;55.750;13.202;2023-12-07T00:30:16;0.70;99.90
17039;DHT22;8636;55.750;13.202;2023-12-07T00:32:51;0.70;99.90
17039;DHT22;8636;55.750;13.202;2023-12-07T00:35:21;0.70;99.90
17039;DHT22;8636;55.750;13.202;2023-12-07T00:37:56;0.70;99.90
17039;DHT22;8636;55.750;13.202;2023-12-07T00:40:24;0.70;99.90
17039;DHT22;8636;55.750;13.202;2023-12-07T00:42:58;0.70;99.90
17039;DHT22;8636;55.750;13.202;2023-12-07T00:45:26;0.70;99.90
17039;DHT22;8636;55.750;13.202;2023-12-07T00:48:00;0.70;99.90
17039;DHT22;8636;55.750;13.202;2023-12-07T00:50:30;0.70;99.90
17039;DHT22;8636;55.750;13.202;2023-12-07T00:53:04;0.70;99.90
17039;DHT22;8636;55.750;13.202;2023-12-07T00:55:32;0.70;99.90
17039;DHT22;8636;55.750;13.202;2023-12-07T00:58:06;0.70;99.90
17039;DHT22;8636;55.750;13.202;2023-12-07T01:00:34;0.70;99.90
17039;DHT22;8636;55.750;13.202;2023-12-07T01:03:09;0.70;99.90
17039;DHT22;8636;55.750;13.202;2023-12-07T01:05:45;0.70;99.90
17039;DHT22;8636;55.750;13.202;2023-12-07T01:08:20;0.70;99.90
17039;DHT22;8636;55.750;13.202;2023-12-07T01:10:48;0.70;99.90
17039;DHT22;8636;55.750;13.202;2023-12-07T01:13:22;0.70;99.90
17039;DHT22;8636;55.750;13.202;2023-12-07T01:15:50;0.70;99.90
17039;DHT22;8636;55.750;13.202;2023-12-07T01:18:25;0.70;99.90
17039;DHT22;8636;55.750;13.202;2023-12-07T01:20:55;0.60;99.90
17039;DHT22;8636;55.750;13.202;2023-12-07T01:23:29;0.60;99.90
17039;DHT22;8636;55.750;13.202;2023-12-07T01:25:57;0.60;99.90
17039;DHT22;8636;55.750;13.202;2023-12-07T01:28:34;0.60;99.90
17039;DHT22;8636;55.750;13.202;2023-12-07T01:31:03;0.60;99.90
17039;DHT22;8636;55.750;13.202;2023-12-07T01:33:37;0.60;99.90
17039;DHT22;8636;55.750;13.202;2023-12-07T01:36:07;0.60;99.90
17039;DHT22;8636;55.750;13.202;2023-12-07T01:38:42;0.50;99.90
17039;DHT22;8636;55.750;13.202;2023-12-07T01:41:10;0.50;99.90
17039;DHT22;8636;55.750;13.202;2023-12-07T01:43:45;0.50;99.90
17039;DHT22;8636;55.750;13.202;2023-12-07T01:46:15;0.50;99.90
17039;DHT22;8636;55.750;13.202;2023-12-07T01:48:49;0.50;99.90
17039;DHT22;8636;55.750;13.202;2023-12-07T01:51:20;0.50;99.90
17039;DHT22;8636;55.750;13.202;2023-12-07T01:53:54;0.50;99.90
17039;DHT22;8636;55.750;13.202;2023-12-07T01:56:23;0.50;99.90
17039;DHT22;8636;55.750;13.202;2023-12-07T01:58:58;0.50;99.90
17039;DHT22;8636;55.750;13.202;2023-12-07T02:01:27;0.50;99.90
17039;DHT22;8636;55.750;13.202;2023-12-07T02:04:15;0.50;99.90
17039;DHT22;8636;55.750;13.202;2023-12-07T02:06:44;0.50;99.90
17039;DHT22;8636;55.750;13.202;2023-12-07T02:09:19;0.50;99.90
17039;DHT22;8636;55.750;13.202;2023-12-07T02:11:49;0.50;99.90
17039;DHT22;8636;55.750;13.202;2023-12-07T02:14:23;0.50;99.90
17039;DHT22;8636;55.750;13.202;2023-12-07T02:16:56;0.60;99.90
17039;DHT22;8636;55.750;13.202;2023-12-07T02:19:49;0.50;99.90
17039;DHT22;8636;55.750;13.202;2023-12-07T02:22:31;0.50;99.90
17039;DHT22;8636;55.750;13.202;2023-12-07T02:25:07;0.50;99.90
17039;DHT22;8636;55.750;13.202;2023-12-07T02:27:38;0.50;99.90
17039;DHT22;8636;55.750;13.202;2023-12-07T02:30:19;0.50;99.90
17039;DHT22;8636;55.750;13.202;2023-12-07T02:32:47;0.50;99.90
17039;DHT22;8636;55.750;13.202;2023-12-07T02:35:22;0.60;99.90
17039;DHT22;8636;55.750;13.202;2023-12-07T02:37:52;0.60;99.90
17039;DHT22;8636;55.750;13.202;2023-12-07T02:40:28;0.60;99.90
17039;DHT22;8636;55.750;13.202;2023-12-07T02:42:58;0.60;99.90
17039;DHT22;8636;55.750;13.202;2023-12-07T02:45:34;0.60;99.90
17039;DHT22;8636;55.750;13.202;2023-12-07T02:48:02;0.60;99.90
17039;DHT22;8636;55.750;13.202;2023-12-07T02:50:36;0.60;99.90
17039;DHT22;8636;55.750;13.202;2023-12-07T02:53:04;0.50;99.90
17039;DHT22;8636;55.750;13.202;2023-12-07T02:55:38;0.50;99.90
17039;DHT22;8636;55.750;13.202;2023-12-07T02:58:08;0.50;99.90
17039;DHT22;8636;55.750;13.202;2023-12-07T03:00:42;0.50;99.90
17039;DHT22;8636;55.750;13.202;2023-12-07T03:03:17;0.50;99.90
17039;DHT22;8636;55.750;13.202;2023-12-07T03:05:51;0.50;99.90
17039;DHT22;8636;55.750;13.202;2023-12-07T03:08:19;0.50;99.90
17039;DHT22;8636;55.750;13.202;2023-12-07T03:10:53;0.50;99.90
17039;DHT22;8636;55.750;13.202;2023-12-07T03:13:23;0.50;99.90
17039;DHT22;8636;55.750;13.202;2023-12-07T03:15:57;0.50;99.90
17039;DHT22;8636;55.750;13.202;2023-12-07T03:18:26;0.50;99.90
17039;DHT22;8636;55.750;13.202;2023-12-07T03:21:02;0.50;99.90
17039;DHT22;8636;55.750;13.202;2023-12-07T03:23:30;0.50;99.90
17039;DHT22;8636;55.750;13.202;2023-12-07T03:26:04;0.50;99.90
17039;DHT22;8636;55.750;13.202;2023-12-07T03:28:34;0.50;99.90
17039;DHT22;8636;55.750;13.202;2023-12-07T03:31:08;0.50;99.90
17039;DHT22;8636;55.750;13.202;2023-12-07T03:33:36;0.50;99.90
17039;DHT22;8636;55.750;13.202;2023-12-07T03:36:11;0.50;99.90
17039;DHT22;8636;55.750;13.202;2023-12-07T03:38:39;0.50;99.90
17039;DHT22;8636;55.750;13.202;2023-12-07T03:41:13;0.50;99.90
17039;DHT22;8636;55.750;13.202;2023-12-07T03:43:43;0.50;99.90
17039;DHT22;8636;55.750;13.202;2023-12-07T03:46:17;0.50;99.90
17039;DHT22;8636;55.750;13.202;2023-12-07T03:48:45;0.50;99.90
17039;DHT22;8636;55.750;13.202;2023-12-07T03:51:13;0.50;99.90
17039;DHT22;8636;55.750;13.202;2023-12-07T03:53:49;0.50;99.90
17039;DHT22;8636;55.750;13.202;2023-12-07T03:56:23;0.50;99.90
17039;DHT22;8636;55.750;13.202;2023-12-07T03:58:59;0.50;99.90
17039;DHT22;8636;55.750;13.202;2023-12-07T04:01:28;0.50;99.90
17039;DHT22;8636;55.750;13.202;2023-12-07T04:04:03;0.50;99.90
17039;DHT22;8636;55.750;13.202;2023-12-07T04:06:44;0.50;99.90
17039;DHT22;8636;55.750;13.202;2023-12-07T04:09:12;0.50;99.90
17039;DHT22;8636;55.750;13.202;2023-12-07T04:11:40;0.50;99.90
17039;DHT22;8636;55.750;13.202;2023-12-07T04:14:16;0.50;99.90
17039;DHT22;8636;55.750;13.202;2023-12-07T04:16:44;0.50;99.90
17039;DHT22;8636;55.750;13.202;2023-12-07T04:19:33;0.50;99.90
17039;DHT22;8636;55.750;13.202;2023-12-07T04:22:14;0.50;99.90
17039;DHT22;8636;55.750;13.202;2023-12-07T04:24:42;0.50;99.90
17039;DHT22;8636;55.750;13.202;2023-12-07T04:27:17;0.50;99.90
17039;DHT22;8636;55.750;13.202;2023-12-07T04:29:47;0.50;99.90
17039;DHT22;8636;55.750;13.202;2023-12-07T04:32:21;0.50;99.90
17039;DHT22;8636;55.750;13.202;2023-12-07T04:34:50;0.50;99.90
17039;DHT22;8636;55.750;13.202;2023-12-07T04:37:24;0.50;99.90
17039;DHT22;8636;55.750;13.202;2023-12-07T04:39:52;0.40;99.90
17039;DHT22;8636;55.750;13.202;2023-12-07T04:42:20;0.50;99.90
17039;DHT22;8636;55.750;13.202;2023-12-07T04:44:57;0.40;99.90
17039;DHT22;8636;55.750;13.202;2023-12-07T04:47:25;0.40;99.90
17039;DHT22;8636;55.750;13.202;2023-12-07T04:49:59;0.40;99.90
17039;DHT22;8636;55.750;13.202;2023-12-07T04:52:28;0.40;99.90
17039;DHT22;8636;55.750;13.202;2023-12-07T04:55:03;0.40;99.90
17039;DHT22;8636;55.750;13.202;2023-12-07T04:57:33;0.40;99.90
17039;DHT22;8636;55.750;13.202;2023-12-07T05:00:10;0.40;99.90
17039;DHT22;8636;55.750;13.202;2023-12-07T05:02:38;0.40;99.90
17039;DHT22;8636;55.750;13.202;2023-12-07T05:05:13;0.40;99.90
17039;DHT22;8636;55.750;13.202;2023-12-07T05:07:41;0.40;99.90
17039;DHT22;8636;55.750;13.202;2023-12-07T05:10:15;0.40;99.90
17039;DHT22;8636;55.750;13.202;2023-12-07T05:12:43;0.40;99.90
17039;DHT22;8636;55.750;13.202;2023-12-07T05:15:19;0.40;99.90
17039;DHT22;8636;55.750;13.202;2023-12-07T05:17:47;0.40;99.90
17039;DHT22;8636;55.750;13.202;2023-12-07T05:20:21;0.40;99.90
17039;DHT22;8636;55.750;13.202;2023-12-07T05:22:50;0.40;99.90
17039;DHT22;8636;55.750;13.202;2023-12-07T05:25:24;0.40;99.90
17039;DHT22;8636;55.750;13.202;2023-12-07T05:27:52;0.40;99.90
17039;DHT22;8636;55.750;13.202;2023-12-07T05:30:28;0.40;99.90
17039;DHT22;8636;55.750;13.202;2023-12-07T05:32:56;0.40;99.90
17039;DHT22;8636;55.750;13.202;2023-12-07T05:35:30;0.40;99.90
17039;DHT22;8636;55.750;13.202;2023-12-07T05:37:59;0.30;99.90
17039;DHT22;8636;55.750;13.202;2023-12-07T05:40:33;0.30;99.90
17039;DHT22;8636;55.750;13.202;2023-12-07T05:43:01;0.30;99.90
17039;DHT22;8636;55.750;13.202;2023-12-07T05:45:38;0.30;99.90
17039;DHT22;8636;55.750;13.202;2023-12-07T05:48:06;0.30;99.90
17039;DHT22;8636;55.750;13.202;2023-12-07T05:50:41;0.30;99.90
17039;DHT22;8636;55.750;13.202;2023-12-07T05:53:09;0.30;99.90
17039;DHT22;8636;55.750;13.202;2023-12-07T05:55:43;0.30;99.90
17039;DHT22;8636;55.750;13.202;2023-12-07T05:58:11;0.30;99.90
17039;DHT22;8636;55.750;13.202;2023-12-07T06:00:47;0.40;99.90
17039;DHT22;8636;55.750;13.202;2023-12-07T06:03:15;0.40;99.90
17039;DHT22;8636;55.750;13.202;2023-12-07T06:05:56;0.40;99.90
17039;DHT22;8636;55.750;13.202;2023-12-07T06:08:24;0.40;99.90
17039;DHT22;8636;55.750;13.202;2023-12-07T06:10:58;0.40;99.90
17039;DHT22;8636;55.750;13.202;2023-12-07T06:13:26;0.40;99.90
17039;DHT22;8636;55.750;13.202;2023-12-07T06:16:02;0.40;99.90
17039;DHT22;8636;55.750;13.202;2023-12-07T06:18:30;0.40;99.90
17039;DHT22;8636;55.750;13.202;2023-12-07T06:21:05;0.40;99.90
17039;DHT22;8636;55.750;13.202;2023-12-07T06:23:33;0.40;99.90
17039;DHT22;8636;55.750;13.202;2023-12-07T06:26:07;0.40;99.90
17039;DHT22;8636;55.750;13.202;2023-12-07T06:28:35;0.40;99.90
17039;DHT22;8636;55.750;13.202;2023-12-07T06:31:11;0.40;99.90
17039;DHT22;8636;55.750;13.202;2023-12-07T06:33:42;0.40;99.90
17039;DHT22;8636;55.750;13.202;2023-12-07T06:36:21;0.40;99.90
17039;DHT22;8636;55.750;13.202;2023-12-07T06:38:49;0.40;99.90
17039;DHT22;8636;55.750;13.202;2023-12-07T06:41:23;0.40;99.90
17039;DHT22;8636;55.750;13.202;2023-12-07T06:43:51;0.40;99.90
17039;DHT22;8636;55.750;13.202;2023-12-07T06:46:27;0.40;99.90
17039;DHT22;8636;55.750;13.202;2023-12-07T06:48:55;0.40;99.90
17039;DHT22;8636;55.750;13.202;2023-12-07T06:51:30;0.40;99.90
17039;DHT22;8636;55.750;13.202;2023-12-07T06:53:58;0.40;99.90
17039;DHT22;8636;55.750;13.202;2023-12-07T06:56:33;0.40;99.90
17039;DHT22;8636;55.750;13.202;2023-12-07T06:59:01;0.40;99.90
17039;DHT22;8636;55.750;13.202;2023-12-07T07:01:37;0.40;99.90
17039;DHT22;8636;55.750;13.202;2023-12-07T07:04:05;0.30;99.90
17039;DHT22;8636;55.750;13.202;2023-12-07T07:06:46;0.20;99.90
17039;DHT22;8636;55.750;13.202;2023-12-07T07:09:14;0.20;99.90
17039;DHT22;8636;55.750;13.202;2023-12-07T07:11:49;0.20;99.90
17039;DHT22;8636;55.750;13.202;2023-12-07T07:14:17;0.10;99.90
17039;DHT22;8636;55.750;13.202;2023-12-07T07:16:53;0.10;99.90
17039;DHT22;8636;55.750;13.202;2023-12-07T07:19:21;0.00;99.90
17039;DHT22;8636;55.750;13.202;2023-12-07T07:21:56;0.00;99.90
17039;DHT22;8636;55.750;13.202;2023-12-07T07:24:23;0.10;99.90
17039;DHT22;8636;55.750;13.202;2023-12-07T07:26:57;0.10;99.90
17039;DHT22;8636;55.750;13.202;2023-12-07T07:29:25;0.20;99.90
17039;DHT22;8636;55.750;13.202;2023-12-07T07:32:02;0.20;99.90
17039;DHT22;8636;55.750;13.202;2023-12-07T07:34:30;0.30;99.90
17039;DHT22;8636;55.750;13.202;2023-12-07T07:37:05;0.30;99.90
17039;DHT22;8636;55.750;13.202;2023-12-07T07:39:34;0.30;99.90
17039;DHT22;8636;55.750;13.202;2023-12-07T07:42:08;0.30;99.90
17039;DHT22;8636;55.750;13.202;2023-12-07T07:44:36;0.40;99.90
17039;DHT22;8636;55.750;13.202;2023-12-07T07:47:12;0.40;99.90
17039;DHT22;8636;55.750;13.202;2023-12-07T07:49:40;0.40;99.90
17039;DHT22;8636;55.750;13.202;2023-12-07T07:52:14;0.40;99.90
17039;DHT22;8636;55.750;13.202;2023-12-07T07:54:42;0.40;99.90
17039;DHT22;8636;55.750;13.202;2023-12-07T07:57:16;0.40;99.90
17039;DHT22;8636;55.750;13.202;2023-12-07T07:59:44;0.40;99.90
17039;DHT22;8636;55.750;13.202;2023-12-07T08:02:29;0.50;99.90
17039;DHT22;8636;55.750;13.202;2023-12-07T08:05:09;0.50;99.90
17039;DHT22;8636;55.750;13.202;2023-12-07T08:07:44;0.50;99.90
17039;DHT22;8636;55.750;13.202;2023-12-07T08:10:12;0.50;99.90
17039;DHT22;8636;55.750;13.202;2023-12-07T08:12:47;0.50;99.90
17039;DHT22;8636;55.750;13.202;2023-12-07T08:15:15;0.50;99.90
17039;DHT22;8636;55.750;13.202;2023-12-07T08:17:51;0.50;99.90
17039;DHT22;8636;55.750;13.202;2023-12-07T08:20:19;0.60;99.90
17039;DHT22;8636;55.750;13.202;2023-12-07T08:22:53;0.60;99.90
17039;DHT22;8636;55.750;13.202;2023-12-07T08:25:21;0.60;99.90
17039;DHT22;8636;55.750;13.202;2023-12-07T08:27:56;0.70;99.90
17039;DHT22;8636;55.750;13.202;2023-12-07T08:30:24;0.70;99.90
17039;DHT22;8636;55.750;13.202;2023-12-07T08:33:00;0.80;99.90
17039;DHT22;8636;55.750;13.202;2023-12-07T08:35:28;0.80;99.90
17039;DHT22;8636;55.750;13.202;2023-12-07T08:38:02;0.90;99.90
17039;DHT22;8636;55.750;13.202;2023-12-07T08:40:31;0.90;99.90
17039;DHT22;8636;55.750;13.202;2023-12-07T08:43:06;0.90;99.90
17039;DHT22;8636;55.750;13.202;2023-12-07T08:45:34;1.00;99.90
17039;DHT22;8636;55.750;13.202;2023-12-07T08:48:13;1.00;99.90
17039;DHT22;8636;55.750;13.202;2023-12-07T08:50:41;1.20;99.90
17039;DHT22;8636;55.750;13.202;2023-12-07T08:53:15;1.20;99.90
17039;DHT22;8636;55.750;13.202;2023-12-07T08:55:43;1.30;99.90
17039;DHT22;8636;55.750;13.202;2023-12-07T08:58:17;1.30;99.90
17039;DHT22;8636;55.750;13.202;2023-12-07T09:00:45;1.40;99.90
17039;DHT22;8636;55.750;13.202;2023-12-07T09:03:28;1.40;99.90
17039;DHT22;8636;55.750;13.202;2023-12-07T09:06:08;1.50;99.90
17039;DHT22;8636;55.750;13.202;2023-12-07T09:08:43;1.60;99.90
17039;DHT22;8636;55.750;13.202;2023-12-07T09:11:10;1.50;99.90
17039;DHT22;8636;55.750;13.202;2023-12-07T09:13:44;1.60;99.90
17039;DHT22;8636;55.750;13.202;2023-12-07T09:16:12;1.60;99.90
17039;DHT22;8636;55.750;13.202;2023-12-07T09:18:49;1.60;99.90
17039;DHT22;8636;55.750;13.202;2023-12-07T09:21:17;1.70;99.90
17039;DHT22;8636;55.750;13.202;2023-12-07T09:23:51;1.90;99.90
17039;DHT22;8636;55.750;13.202;2023-12-07T09:26:19;1.80;99.90
17039;DHT22;8636;55.750;13.202;2023-12-07T09:28:53;1.80;99.90
17039;DHT22;8636;55.750;13.202;2023-12-07T09:31:21;1.80;99.90
17039;DHT22;8636;55.750;13.202;2023-12-07T09:33:57;1.70;99.90
17039;DHT22;8636;55.750;13.202;2023-12-07T09:36:38;1.70;99.90
17039;DHT22;8636;55.750;13.202;2023-12-07T09:39:12;1.70;99.90
17039;DHT22;8636;55.750;13.202;2023-12-07T09:41:41;1.70;99.90
17039;DHT22;8636;55.750;13.202;2023-12-07T09:44:20;1.80;99.90
17039;DHT22;8636;55.750;13.202;2023-12-07T09:46:48;1.80;99.90
17039;DHT22;8636;55.750;13.202;2023-12-07T09:49:24;1.90;99.90
17039;DHT22;8636;55.750;13.202;2023-12-07T09:51:54;1.80;99.90
17039;DHT22;8636;55.750;13.202;2023-12-07T09:54:30;1.80;99.90
17039;DHT22;8636;55.750;13.202;2023-12-07T09:56:58;1.80;99.90
17039;DHT22;8636;55.750;13.202;2023-12-07T09:59:32;1.70;99.90
17039;DHT22;8636;55.750;13.202;2023-12-07T10:02:00;1.80;99.90
17039;DHT22;8636;55.750;13.202;2023-12-07T10:04:43;1.80;99.90
17039;DHT22;8636;55.750;13.202;2023-12-07T10:07:11;1.80;99.90
17039;DHT22;8636;55.750;13.202;2023-12-07T10:09:46;1.80;99.90
17039;DHT22;8636;55.750;13.202;2023-12-07T10:12:13;1.70;99.90
17039;DHT22;8636;55.750;13.202;2023-12-07T10:14:47;1.80;99.90
17039;DHT22;8636;55.750;13.202;2023-12-07T10:17:15;2.10;99.90
17039;DHT22;8636;55.750;13.202;2023-12-07T10:20:09;2.00;99.90
17039;DHT22;8636;55.750;13.202;2023-12-07T10:22:39;2.00;99.90
17039;DHT22;8636;55.750;13.202;2023-12-07T10:25:15;2.10;99.90
17039;DHT22;8636;55.750;13.202;2023-12-07T10:27:44;2.00;99.90
17039;DHT22;8636;55.750;13.202;2023-12-07T10:30:18;2.00;99.90
17039;DHT22;8636;55.750;13.202;2023-12-07T10:32:52;2.10;99.90
17039;DHT22;8636;55.750;13.202;2023-12-07T10:35:28;2.00;99.90
17039;DHT22;8636;55.750;13.202;2023-12-07T10:37:56;2.10;99.90
17039;DHT22;8636;55.750;13.202;2023-12-07T10:40:30;2.10;99.90
17039;DHT22;8636;55.750;13.202;2023-12-07T10:42:58;2.10;99.90
17039;DHT22;8636;55.750;13.202;2023-12-07T10:45:36;2.20;99.90
17039;DHT22;8636;55.750;13.202;2023-12-07T10:48:06;2.20;99.90
17039;DHT22;8636;55.750;13.202;2023-12-07T10:50:46;2.20;99.90
17039;DHT22;8636;55.750;13.202;2023-12-07T10:53:20;2.10;99.90
17039;DHT22;8636;55.750;13.202;2023-12-07T10:55:56;2.10;99.90
17039;DHT22;8636;55.750;13.202;2023-12-07T10:58:27;2.10;99.90
17039;DHT22;8636;55.750;13.202;2023-12-07T11:01:02;2.20;99.90
17039;DHT22;8636;55.750;13.202;2023-12-07T11:03:31;2.30;99.90
17039;DHT22;8636;55.750;13.202;2023-12-07T11:06:15;2.40;99.90
17039;DHT22;8636;55.750;13.202;2023-12-07T11:08:47;2.30;99.90
17039;DHT22;8636;55.750;13.202;2023-12-07T11:11:29;2.30;99.90
17039;DHT22;8636;55.750;13.202;2023-12-07T11:14:02;2.30;99.90
17039;DHT22;8636;55.750;13.202;2023-12-07T11:16:39;2.10;99.90
17039;DHT22;8636;55.750;13.202;2023-12-07T11:22:20;2.10;99.90
17039;DHT22;8636;55.750;13.202;2023-12-07T11:24:54;2.10;99.90
17039;DHT22;8636;55.750;13.202;2023-12-07T11:27:33;2.10;99.90
17039;DHT22;8636;55.750;13.202;2023-12-07T11:30:02;2.20;99.90
17039;DHT22;8636;55.750;13.202;2023-12-07T11:32:37;2.30;99.90
17039;DHT22;8636;55.750;13.202;2023-12-07T11:35:07;2.30;99.90
17039;DHT22;8636;55.750;13.202;2023-12-07T11:38:03;2.30;99.90
17039;DHT22;8636;55.750;13.202;2023-12-07T11:40:35;2.20;99.90
17039;DHT22;8636;55.750;13.202;2023-12-07T11:43:17;2.30;99.90
17039;DHT22;8636;55.750;13.202;2023-12-07T11:45:48;2.30;99.90
17039;DHT22;8636;55.750;13.202;2023-12-07T11:48:22;2.30;99.90
17039;DHT22;8636;55.750;13.202;2023-12-07T11:50:58;2.30;99.90
17039;DHT22;8636;55.750;13.202;2023-12-07T11:53:35;2.40;99.90
17039;DHT22;8636;55.750;13.202;2023-12-07T11:56:05;2.40;99.90
17039;DHT22;8636;55.750;13.202;2023-12-07T11:58:40;2.20;99.90
17039;DHT22;8636;55.750;13.202;2023-12-07T12:01:08;2.20;99.90
17039;DHT22;8636;55.750;13.202;2023-12-07T12:03:49;2.20;99.90
17039;DHT22;8636;55.750;13.202;2023-12-07T12:06:17;2.20;99.90
17039;DHT22;8636;55.750;13.202;2023-12-07T12:08:53;2.40;99.90
17039;DHT22;8636;55.750;13.202;2023-12-07T12:11:23;2.30;99.90
17039;DHT22;8636;55.750;13.202;2023-12-07T12:13:57;2.20;99.90
17039;DHT22;8636;55.750;13.202;2023-12-07T12:16:26;2.10;99.90
17039;DHT22;8636;55.750;13.202;2023-12-07T12:19:00;2.10;99.90
17039;DHT22;8636;55.750;13.202;2023-12-07T12:21:28;2.10;99.90
17039;DHT22;8636;55.750;13.202;2023-12-07T12:24:08;2.10;99.90
17039;DHT22;8636;55.750;13.202;2023-12-07T12:26:37;2.10;99.90
17039;DHT22;8636;55.750;13.202;2023-12-07T12:29:13;2.10;99.90
17039;DHT22;8636;55.750;13.202;2023-12-07T12:31:53;2.10;99.90
17039;DHT22;8636;55.750;13.202;2023-12-07T12:34:27;2.20;99.90
17039;DHT22;8636;55.750;13.202;2023-12-07T12:36:56;2.20;99.90
17039;DHT22;8636;55.750;13.202;2023-12-07T12:39:32;2.20;99.90
17039;DHT22;8636;55.750;13.202;2023-12-07T12:42:02;2.10;99.90
17039;DHT22;8636;55.750;13.202;2023-12-07T12:44:37;2.00;99.90
17039;DHT22;8636;55.750;13.202;2023-12-07T12:47:06;2.00;99.90
17039;DHT22;8636;55.750;13.202;2023-12-07T12:49:43;1.90;99.90
17039;DHT22;8636;55.750;13.202;2023-12-07T12:52:15;1.90;99.90
17039;DHT22;8636;55.750;13.202;2023-12-07T12:54:51;1.90;99.90
17039;DHT22;8636;55.750;13.202;2023-12-07T12:57:19;1.90;99.90
17039;DHT22;8636;55.750;13.202;2023-12-07T12:59:54;1.90;99.90
17039;DHT22;8636;55.750;13.202;2023-12-07T13:02:28;1.80;99.90
17039;DHT22;8636;55.750;13.202;2023-12-07T13:05:05;1.90;99.90
17039;DHT22;8636;55.750;13.202;2023-12-07T13:07:40;1.80;99.90
17039;DHT22;8636;55.750;13.202;2023-12-07T13:10:41;1.80;99.90
17039;DHT22;8636;55.750;13.202;2023-12-07T13:13:09;1.80;99.90
17039;DHT22;8636;55.750;13.202;2023-12-07T13:15:43;1.80;99.90
17039;DHT22;8636;55.750;13.202;2023-12-07T13:18:11;1.70;99.90
17039;DHT22;8636;55.750;13.202;2023-12-07T13:20:46;1.70;99.90
17039;DHT22;8636;55.750;13.202;2023-12-07T13:23:21;1.70;99.90
17039;DHT22;8636;55.750;13.202;2023-12-07T13:25:57;1.60;99.90
17039;DHT22;8636;55.750;13.202;2023-12-07T13:28:25;1.50;99.90
17039;DHT22;8636;55.750;13.202;2023-12-07T13:30:59;1.60;99.90
17039;DHT22;8636;55.750;13.202;2023-12-07T13:33:27;1.50;99.90
17039;DHT22;8636;55.750;13.202;2023-12-07T13:36:16;1.40;99.90
17039;DHT22;8636;55.750;13.202;2023-12-07T13:38:45;1.40;99.90
17039;DHT22;8636;55.750;13.202;2023-12-07T13:41:23;1.40;99.90
17039;DHT22;8636;55.750;13.202;2023-12-07T13:43:51;1.30;99.90
17039;DHT22;8636;55.750;13.202;2023-12-07T13:46:25;1.40;99.90
17039;DHT22;8636;55.750;13.202;2023-12-07T13:48:53;1.40;99.90
17039;DHT22;8636;55.750;13.202;2023-12-07T13:51:28;1.30;99.90
17039;DHT22;8636;55.750;13.202;2023-12-07T13:53:56;1.20;99.90
17039;DHT22;8636;55.750;13.202;2023-12-07T13:56:32;1.20;99.90
17039;DHT22;8636;55.750;13.202;2023-12-07T13:59:00;1.20;99.90
17039;DHT22;8636;55.750;13.202;2023-12-07T14:01:34;1.20;99.90
17039;DHT22;8636;55.750;13.202;2023-12-07T14:04:09;1.20;99.90
17039;DHT22;8636;55.750;13.202;2023-12-07T14:07:06;1.10;99.90
17039;DHT22;8636;55.750;13.202;2023-12-07T14:09:42;1.10;99.90
17039;DHT22;8636;55.750;13.202;2023-12-07T14:12:26;1.00;99.90
17039;DHT22;8636;55.750;13.202;2023-12-07T14:14:56;1.00;99.90
17039;DHT22;8636;55.750;13.202;2023-12-07T14:17:30;1.00;99.90
17039;DHT22;8636;55.750;13.202;2023-12-07T14:20:16;1.00;99.90
17039;DHT22;8636;55.750;13.202;2023-12-07T14:23:10;0.90;99.90
17039;DHT22;8636;55.750;13.202;2023-12-07T14:25:39;0.90;99.90
17039;DHT22;8636;55.750;13.202;2023-12-07T14:28:17;0.80;99.90
17039;DHT22;8636;55.750;13.202;2023-12-07T14:30:45;0.80;99.90
17039;DHT22;8636;55.750;13.202;2023-12-07T14:33:19;0.80;99.90
17039;DHT22;8636;55.750;13.202;2023-12-07T14:35:48;0.80;99.90
17039;DHT22;8636;55.750;13.202;2023-12-07T14:38:23;0.70;99.90
17039;DHT22;8636;55.750;13.202;2023-12-07T14:40:51;0.70;99.90
17039;DHT22;8636;55.750;13.202;2023-12-07T14:43:29;0.70;99.90
17039;DHT22;8636;55.750;13.202;2023-12-07T14:45:57;0.70;99.90
17039;DHT22;8636;55.750;13.202;2023-12-07T14:48:32;0.70;99.90
17039;DHT22;8636;55.750;13.202;2023-12-07T14:51:00;0.70;99.90
17039;DHT22;8636;55.750;13.202;2023-12-07T14:53:34;0.70;99.90
17039;DHT22;8636;55.750;13.202;2023-12-07T14:56:03;0.70;99.90
17039;DHT22;8636;55.750;13.202;2023-12-07T14:58:39;0.70;99.90
17039;DHT22;8636;55.750;13.202;2023-12-07T15:01:07;0.70;99.90
17039;DHT22;8636;55.750;13.202;2023-12-07T15:03:48;0.70;99.90
17039;DHT22;8636;55.750;13.202;2023-12-07T15:06:31;0.70;99.90
17039;DHT22;8636;55.750;13.202;2023-12-07T15:09:06;0.60;99.90
17039;DHT22;8636;55.750;13.202;2023-12-07T15:11:34;0.70;99.90
17039;DHT22;8636;55.750;13.202;2023-12-07T15:14:10;0.70;99.90
17039;DHT22;8636;55.750;13.202;2023-12-07T15:16:56;0.70;99.90
17039;DHT22;8636;55.750;13.202;2023-12-07T15:19:32;0.70;99.90
17039;DHT22;8636;55.750;13.202;2023-12-07T15:22:01;0.70;99.90
17039;DHT22;8636;55.750;13.202;2023-12-07T15:24:36;0.70;99.90
17039;DHT22;8636;55.750;13.202;2023-12-07T15:27:06;0.60;99.90
17039;DHT22;8636;55.750;13.202;2023-12-07T15:29:43;0.50;99.90
17039;DHT22;8636;55.750;13.202;2023-12-07T15:32:11;0.40;99.90
17039;DHT22;8636;55.750;13.202;2023-12-07T15:34:46;0.40;99.90
17039;DHT22;8636;55.750;13.202;2023-12-07T15:37:14;0.40;99.90
17039;DHT22;8636;55.750;13.202;2023-12-07T15:39:51;0.40;99.90
17039;DHT22;8636;55.750;13.202;2023-12-07T15:42:18;0.50;99.90
17039;DHT22;8636;55.750;13.202;2023-12-07T15:44:54;0.50;99.90
17039;DHT22;8636;55.750;13.202;2023-12-07T15:47:22;0.60;99.90
17039;DHT22;8636;55.750;13.202;2023-12-07T15:49:57;0.60;99.90
17039;DHT22;8636;55.750;13.202;2023-12-07T15:52:25;0.50;99.90
17039;DHT22;8636;55.750;13.202;2023-12-07T15:54:59;0.50;99.90
17039;DHT22;8636;55.750;13.202;2023-12-07T15:57:28;0.50;99.90
17039;DHT22;8636;55.750;13.202;2023-12-07T16:00:05;0.50;99.90
17039;DHT22;8636;55.750;13.202;2023-12-07T16:02:34;0.50;99.90
17039;DHT22;8636;55.750;13.202;2023-12-07T16:05:15;0.50;99.90
17039;DHT22;8636;55.750;13.202;2023-12-07T16:07:43;0.50;99.90
17039;DHT22;8636;55.750;13.202;2023-12-07T16:10:17;0.50;99.90
17039;DHT22;8636;55.750;13.202;2023-12-07T16:12:46;0.40;99.90
17039;DHT22;8636;55.750;13.202;2023-12-07T16:15:22;0.50;99.90
17039;DHT22;8636;55.750;13.202;2023-12-07T16:17:50;0.40;99.90
17039;DHT22;8636;55.750;13.202;2023-12-07T16:20:25;0.50;99.90
17039;DHT22;8636;55.750;13.202;2023-12-07T16:22:53;0.50;99.90
17039;DHT22;8636;55.750;13.202;2023-12-07T16:25:28;0.50;99.90